sensor_id;sensor_type;location;lat;lon;timestamp;temperature;humidity
30063;DHT22;16889;67.864;24.990;2023-05-10T00:02:45;4.60;99.90
30063;DHT22;16889;67.864;24.990;2023-05-10T00:07:31;4.50;99.90
30063;DHT22;16889;67.864;24.990;2023-05-10T00:12:17;4.30;99.90
30063;DHT22;16889;67.864;24.990;2023-05-10T00:17:03;4.30;99.90
30063;DHT22;16889;67.864;24.990;2023-05-10T00:21:49;4.00;99.90
30063;DHT22;16889;67.864;24.990;2023-05-10T00:26:35;4.10;99.90
30063;DHT22;16889;67.864;24.990;2023-05-10T00:31:21;4.10;99.90
30063;DHT22;16889;67.864;24.990;2023-05-10T00:36:07;4.30;99.90
30063;DHT22;16889;67.864;24.990;2023-05-10T00:40:53;4.20;99.90
30063;DHT22;16889;67.864;24.990;2023-05-10T00:45:40;4.00;99.90
30063;DHT22;16889;67.864;24.990;2023-05-10T00:50:26;4.10;99.90
30063;DHT22;16889;67.864;24.990;2023-05-10T00:55:12;4.10;99.90
30063;DHT22;16889;67.864;24.990;2023-05-10T00:59:58;4.40;99.90
30063;DHT22;16889;67.864;24.990;2023-05-10T01:04:45;4.20;99.90
30063;DHT22;16889;67.864;24.990;2023-05-10T01:09:31;4.10;99.90
30063;DHT22;16889;67.864;24.990;2023-05-10T01:14:19;4.10;99.90
30063;DHT22;16889;67.864;24.990;2023-05-10T01:19:28;4.10;99.90
30063;DHT22;16889;67.864;24.990;2023-05-10T01:29:44;4.10;99.90
30063;DHT22;16889;67.864;24.990;2023-05-10T01:35:19;4.20;99.90
30063;DHT22;16889;67.864;24.990;2023-05-10T01:40:08;4.30;99.90
30063;DHT22;16889;67.864;24.990;2023-05-10T01:45:47;4.40;99.90
30063;DHT22;16889;67.864;24.990;2023-05-10T01:50:18;4.30;99.90
30063;DHT22;16889;67.864;24.990;2023-05-10T01:55:16;4.20;99.90
30063;DHT22;16889;67.864;24.990;2023-05-10T02:00:04;4.30;99.90
30063;DHT22;16889;67.864;24.990;2023-05-10T02:04:51;4.60;99.90
30063;DHT22;16889;67.864;24.990;2023-05-10T02:09:39;4.70;99.90
30063;DHT22;16889;67.864;24.990;2023-05-10T02:14:27;4.70;99.90
30063;DHT22;16889;67.864;24.990;2023-05-10T02:19:13;4.70;99.90
30063;DHT22;16889;67.864;24.990;2023-05-10T02:24:02;4.70;99.90
30063;DHT22;16889;67.864;24.990;2023-05-10T02:28:50;4.70;99.90
30063;DHT22;16889;67.864;24.990;2023-05-10T02:33:38;4.70;99.90
30063;DHT22;16889;67.864;24.990;2023-05-10T02:38:27;4.70;99.90
30063;DHT22;16889;67.864;24.990;2023-05-10T02:43:15;4.50;99.90
30063;DHT22;16889;67.864;24.990;2023-05-10T02:48:03;4.80;99.90
30063;DHT22;16889;67.864;24.990;2023-05-10T02:52:51;4.90;99.90
30063;DHT22;16889;67.864;24.990;2023-05-10T02:57:43;4.80;99.90
30063;DHT22;16889;67.864;24.990;2023-05-10T03:02:31;4.70;99.90
30063;DHT22;16889;67.864;24.990;2023-05-10T03:07:18;4.60;99.90
30063;DHT22;16889;67.864;24.990;2023-05-10T03:18:06;4.80;99.90
30063;DHT22;16889;67.864;24.990;2023-05-10T03:23:07;5.00;99.90
30063;DHT22;16889;67.864;24.990;2023-05-10T03:27:54;5.30;99.90
30063;DHT22;16889;67.864;24.990;2023-05-10T03:32:40;5.50;99.90
30063;DHT22;16889;67.864;24.990;2023-05-10T03:37:26;5.70;99.90
30063;DHT22;16889;67.864;24.990;2023-05-10T03:42:12;5.80;99.90
30063;DHT22;16889;67.864;24.990;2023-05-10T03:46:58;6.10;99.90
30063;DHT22;16889;67.864;24.990;2023-05-10T03:51:44;6.20;99.90
30063;DHT22;16889;67.864;24.990;2023-05-10T03:56:30;6.20;99.90
30063;DHT22;16889;67.864;24.990;2023-05-10T04:01:17;6.30;99.90
30063;DHT22;16889;67.864;24.990;2023-05-10T04:06:03;6.40;99.90
30063;DHT22;16889;67.864;24.990;2023-05-10T04:10:49;6.20;99.90
30063;DHT22;16889;67.864;24.990;2023-05-10T04:15:35;6.20;99.90
30063;DHT22;16889;67.864;24.990;2023-05-10T04:20:21;6.20;99.90
30063;DHT22;16889;67.864;24.990;2023-05-10T04:25:07;6.20;99.90
30063;DHT22;16889;67.864;24.990;2023-05-10T04:29:53;6.10;99.90
30063;DHT22;16889;67.864;24.990;2023-05-10T04:34:39;6.20;99.90
30063;DHT22;16889;67.864;24.990;2023-05-10T04:39:25;6.20;99.90
30063;DHT22;16889;67.864;24.990;2023-05-10T04:44:11;6.00;99.90
30063;DHT22;16889;67.864;24.990;2023-05-10T04:48:57;6.20;99.90
30063;DHT22;16889;67.864;24.990;2023-05-10T04:53:43;6.40;99.90
30063;DHT22;16889;67.864;24.990;2023-05-10T04:58:29;6.30;99.90
30063;DHT22;16889;67.864;24.990;2023-05-10T05:03:16;6.40;99.90
30063;DHT22;16889;67.864;24.990;2023-05-10T05:08:01;6.50;99.90
30063;DHT22;16889;67.864;24.990;2023-05-10T05:12:47;6.60;99.90
30063;DHT22;16889;67.864;24.990;2023-05-10T05:17:33;6.80;99.90
30063;DHT22;16889;67.864;24.990;2023-05-10T05:22:19;7.00;99.90
30063;DHT22;16889;67.864;24.990;2023-05-10T05:27:12;6.80;99.90
30063;DHT22;16889;67.864;24.990;2023-05-10T05:31:58;6.70;99.90
30063;DHT22;16889;67.864;24.990;2023-05-10T05:36:44;6.80;99.90
30063;DHT22;16889;67.864;24.990;2023-05-10T05:41:30;7.10;99.90
30063;DHT22;16889;67.864;24.990;2023-05-10T05:46:16;7.50;99.90
30063;DHT22;16889;67.864;24.990;2023-05-10T05:51:02;8.00;99.90
30063;DHT22;16889;67.864;24.990;2023-05-10T05:55:56;8.20;99.90
30063;DHT22;16889;67.864;24.990;2023-05-10T06:00:43;8.60;99.90
30063;DHT22;16889;67.864;24.990;2023-05-10T06:05:29;8.80;99.90
30063;DHT22;16889;67.864;24.990;2023-05-10T06:10:15;9.40;99.90
30063;DHT22;16889;67.864;24.990;2023-05-10T06:15:01;9.60;99.90
30063;DHT22;16889;67.864;24.990;2023-05-10T06:19:47;10.00;99.90
30063;DHT22;16889;67.864;24.990;2023-05-10T06:24:33;10.80;98.60
30063;DHT22;16889;67.864;24.990;2023-05-10T06:29:19;10.60;97.40
30063;DHT22;16889;67.864;24.990;2023-05-10T06:34:05;10.20;98.10
30063;DHT22;16889;67.864;24.990;2023-05-10T06:38:53;10.30;98.60
30063;DHT22;16889;67.864;24.990;2023-05-10T06:43:39;10.40;97.50
30063;DHT22;16889;67.864;24.990;2023-05-10T06:48:26;10.10;98.60
30063;DHT22;16889;67.864;24.990;2023-05-10T06:53:13;10.20;98.80
30063;DHT22;16889;67.864;24.990;2023-05-10T06:57:59;10.10;98.90
30063;DHT22;16889;67.864;24.990;2023-05-10T07:02:45;10.10;98.40
30063;DHT22;16889;67.864;24.990;2023-05-10T07:07:31;10.50;98.40
30063;DHT22;16889;67.864;24.990;2023-05-10T07:12:17;10.40;98.00
30063;DHT22;16889;67.864;24.990;2023-05-10T07:17:03;10.60;97.80
30063;DHT22;16889;67.864;24.990;2023-05-10T07:21:49;10.40;97.50
30063;DHT22;16889;67.864;24.990;2023-05-10T07:26:35;10.20;97.80
30063;DHT22;16889;67.864;24.990;2023-05-10T07:31:21;9.70;99.30
30063;DHT22;16889;67.864;24.990;2023-05-10T07:36:07;9.40;99.90
30063;DHT22;16889;67.864;24.990;2023-05-10T07:40:53;9.50;99.30
30063;DHT22;16889;67.864;24.990;2023-05-10T07:45:39;9.70;99.70
30063;DHT22;16889;67.864;24.990;2023-05-10T07:50:25;9.70;99.30
30063;DHT22;16889;67.864;24.990;2023-05-10T07:55:11;10.00;98.90
30063;DHT22;16889;67.864;24.990;2023-05-10T07:59:57;10.00;98.80
30063;DHT22;16889;67.864;24.990;2023-05-10T08:04:43;10.00;98.80
30063;DHT22;16889;67.864;24.990;2023-05-10T08:09:29;10.50;98.50
30063;DHT22;16889;67.864;24.990;2023-05-10T08:14:15;10.70;97.50
30063;DHT22;16889;67.864;24.990;2023-05-10T08:19:01;10.90;97.40
30063;DHT22;16889;67.864;24.990;2023-05-10T08:23:47;10.90;97.50
30063;DHT22;16889;67.864;24.990;2023-05-10T08:28:33;10.90;97.30
30063;DHT22;16889;67.864;24.990;2023-05-10T08:33:19;10.80;97.70
30063;DHT22;16889;67.864;24.990;2023-05-10T08:38:05;10.70;98.90
30063;DHT22;16889;67.864;24.990;2023-05-10T08:43:06;10.90;98.20
30063;DHT22;16889;67.864;24.990;2023-05-10T08:47:55;11.90;96.80
30063;DHT22;16889;67.864;24.990;2023-05-10T08:52:41;12.20;95.40
30063;DHT22;16889;67.864;24.990;2023-05-10T08:57:28;11.80;95.10
30063;DHT22;16889;67.864;24.990;2023-05-10T09:02:14;11.80;96.20
30063;DHT22;16889;67.864;24.990;2023-05-10T09:07:00;12.10;95.80
30063;DHT22;16889;67.864;24.990;2023-05-10T09:11:47;12.20;95.00
30063;DHT22;16889;67.864;24.990;2023-05-10T09:16:33;12.80;94.60
30063;DHT22;16889;67.864;24.990;2023-05-10T09:21:19;12.80;92.80
30063;DHT22;16889;67.864;24.990;2023-05-10T09:26:06;12.70;93.00
30063;DHT22;16889;67.864;24.990;2023-05-10T09:30:53;12.00;94.10
30063;DHT22;16889;67.864;24.990;2023-05-10T09:35:41;12.30;94.00
30063;DHT22;16889;67.864;24.990;2023-05-10T09:40:29;12.80;93.20
30063;DHT22;16889;67.864;24.990;2023-05-10T09:45:15;13.00;92.60
30063;DHT22;16889;67.864;24.990;2023-05-10T09:50:03;13.00;92.00
30063;DHT22;16889;67.864;24.990;2023-05-10T09:54:53;13.20;92.00
30063;DHT22;16889;67.864;24.990;2023-05-10T09:59:42;13.20;92.10
30063;DHT22;16889;67.864;24.990;2023-05-10T10:04:29;13.20;92.30
30063;DHT22;16889;67.864;24.990;2023-05-10T10:09:15;13.20;92.30
30063;DHT22;16889;67.864;24.990;2023-05-10T10:14:01;13.30;91.20
30063;DHT22;16889;67.864;24.990;2023-05-10T10:18:47;12.50;93.60
30063;DHT22;16889;67.864;24.990;2023-05-10T10:23:35;12.30;93.60
30063;DHT22;16889;67.864;24.990;2023-05-10T10:28:43;12.00;94.30
30063;DHT22;16889;67.864;24.990;2023-05-10T10:33:39;12.10;94.80
30063;DHT22;16889;67.864;24.990;2023-05-10T10:43:28;12.10;94.50
30063;DHT22;16889;67.864;24.990;2023-05-10T10:48:23;12.30;94.70
30063;DHT22;16889;67.864;24.990;2023-05-10T10:53:12;12.10;94.90
30063;DHT22;16889;67.864;24.990;2023-05-10T10:57:59;12.00;95.10
30063;DHT22;16889;67.864;24.990;2023-05-10T11:02:52;12.10;95.00
30063;DHT22;16889;67.864;24.990;2023-05-10T11:07:52;12.10;94.80
30063;DHT22;16889;67.864;24.990;2023-05-10T11:12:51;12.00;95.70
30063;DHT22;16889;67.864;24.990;2023-05-10T11:17:37;12.10;95.50
30063;DHT22;16889;67.864;24.990;2023-05-10T11:22:25;12.20;95.20
30063;DHT22;16889;67.864;24.990;2023-05-10T11:27:11;12.50;94.80
30063;DHT22;16889;67.864;24.990;2023-05-10T11:31:58;12.60;94.70
30063;DHT22;16889;67.864;24.990;2023-05-10T11:36:51;12.70;93.90
30063;DHT22;16889;67.864;24.990;2023-05-10T11:41:39;12.30;94.90
30063;DHT22;16889;67.864;24.990;2023-05-10T11:46:27;12.40;95.10
30063;DHT22;16889;67.864;24.990;2023-05-10T11:51:13;12.70;95.10
30063;DHT22;16889;67.864;24.990;2023-05-10T11:56:03;12.90;94.70
30063;DHT22;16889;67.864;24.990;2023-05-10T12:00:50;12.80;94.90
30063;DHT22;16889;67.864;24.990;2023-05-10T12:05:37;12.90;94.40
30063;DHT22;16889;67.864;24.990;2023-05-10T12:10:26;13.20;95.60
30063;DHT22;16889;67.864;24.990;2023-05-10T12:15:30;13.10;94.50
30063;DHT22;16889;67.864;24.990;2023-05-10T12:20:19;13.00;94.20
30063;DHT22;16889;67.864;24.990;2023-05-10T12:25:06;12.70;94.40
30063;DHT22;16889;67.864;24.990;2023-05-10T12:29:53;12.30;95.30
30063;DHT22;16889;67.864;24.990;2023-05-10T12:34:40;11.90;96.50
30063;DHT22;16889;67.864;24.990;2023-05-10T12:39:26;11.70;97.20
30063;DHT22;16889;67.864;24.990;2023-05-10T12:44:22;11.70;97.70
30063;DHT22;16889;67.864;24.990;2023-05-10T12:49:08;11.50;98.70
30063;DHT22;16889;67.864;24.990;2023-05-10T12:53:54;11.30;99.90
30063;DHT22;16889;67.864;24.990;2023-05-10T12:58:41;11.10;99.90
30063;DHT22;16889;67.864;24.990;2023-05-10T13:03:27;10.80;99.90
30063;DHT22;16889;67.864;24.990;2023-05-10T13:08:12;10.60;99.90
30063;DHT22;16889;67.864;24.990;2023-05-10T13:12:59;10.30;99.90
30063;DHT22;16889;67.864;24.990;2023-05-10T13:17:45;10.30;99.90
30063;DHT22;16889;67.864;24.990;2023-05-10T13:22:31;10.40;99.90
30063;DHT22;16889;67.864;24.990;2023-05-10T13:27:16;10.30;99.90
30063;DHT22;16889;67.864;24.990;2023-05-10T13:32:02;10.10;99.90
30063;DHT22;16889;67.864;24.990;2023-05-10T13:36:48;10.00;99.90
30063;DHT22;16889;67.864;24.990;2023-05-10T13:41:34;10.20;99.90
30063;DHT22;16889;67.864;24.990;2023-05-10T13:46:23;10.00;99.90
30063;DHT22;16889;67.864;24.990;2023-05-10T13:51:09;9.70;99.90
30063;DHT22;16889;67.864;24.990;2023-05-10T13:55:55;9.50;99.90
30063;DHT22;16889;67.864;24.990;2023-05-10T14:00:41;9.60;99.90
30063;DHT22;16889;67.864;24.990;2023-05-10T14:05:27;10.00;99.90
30063;DHT22;16889;67.864;24.990;2023-05-10T14:10:13;10.00;99.90
30063;DHT22;16889;67.864;24.990;2023-05-10T14:14:59;10.10;99.90
30063;DHT22;16889;67.864;24.990;2023-05-10T14:19:45;10.20;99.90
30063;DHT22;16889;67.864;24.990;2023-05-10T14:24:31;10.60;99.90
30063;DHT22;16889;67.864;24.990;2023-05-10T14:29:18;10.90;99.90
30063;DHT22;16889;67.864;24.990;2023-05-10T14:34:03;11.10;99.90
30063;DHT22;16889;67.864;24.990;2023-05-10T14:38:50;11.40;99.90
30063;DHT22;16889;67.864;24.990;2023-05-10T14:43:36;11.50;99.90
30063;DHT22;16889;67.864;24.990;2023-05-10T14:48:22;11.60;99.90
30063;DHT22;16889;67.864;24.990;2023-05-10T14:53:08;11.60;99.90
30063;DHT22;16889;67.864;24.990;2023-05-10T14:57:54;11.70;99.90
30063;DHT22;16889;67.864;24.990;2023-05-10T15:02:40;11.90;99.90
30063;DHT22;16889;67.864;24.990;2023-05-10T15:07:26;11.80;99.90
30063;DHT22;16889;67.864;24.990;2023-05-10T15:12:12;11.50;99.90
30063;DHT22;16889;67.864;24.990;2023-05-10T15:16:58;11.30;99.90
30063;DHT22;16889;67.864;24.990;2023-05-10T15:21:44;11.10;99.90
30063;DHT22;16889;67.864;24.990;2023-05-10T15:26:30;11.10;99.90
30063;DHT22;16889;67.864;24.990;2023-05-10T15:31:16;11.10;99.90
30063;DHT22;16889;67.864;24.990;2023-05-10T15:36:02;11.00;99.90
30063;DHT22;16889;67.864;24.990;2023-05-10T15:40:49;10.90;99.90
30063;DHT22;16889;67.864;24.990;2023-05-10T15:45:35;10.90;99.90
30063;DHT22;16889;67.864;24.990;2023-05-10T15:50:21;10.90;99.90
30063;DHT22;16889;67.864;24.990;2023-05-10T15:55:08;10.90;99.90
30063;DHT22;16889;67.864;24.990;2023-05-10T16:00:00;10.80;99.90
30063;DHT22;16889;67.864;24.990;2023-05-10T16:04:46;10.70;99.90
30063;DHT22;16889;67.864;24.990;2023-05-10T16:09:32;10.70;99.90
30063;DHT22;16889;67.864;24.990;2023-05-10T16:14:17;10.50;99.90
30063;DHT22;16889;67.864;24.990;2023-05-10T16:19:05;10.60;99.90
30063;DHT22;16889;67.864;24.990;2023-05-10T16:23:51;10.70;99.90
30063;DHT22;16889;67.864;24.990;2023-05-10T16:28:37;10.70;99.90
30063;DHT22;16889;67.864;24.990;2023-05-10T16:33:25;10.40;99.90
30063;DHT22;16889;67.864;24.990;2023-05-10T16:38:11;10.30;99.90
30063;DHT22;16889;67.864;24.990;2023-05-10T16:42:57;10.40;99.90
30063;DHT22;16889;67.864;24.990;2023-05-10T16:47:43;10.40;99.90
30063;DHT22;16889;67.864;24.990;2023-05-10T16:52:30;10.40;99.90
30063;DHT22;16889;67.864;24.990;2023-05-10T16:57:17;10.30;99.90
30063;DHT22;16889;67.864;24.990;2023-05-10T17:02:03;10.20;99.90
30063;DHT22;16889;67.864;24.990;2023-05-10T17:06:48;10.00;99.90
30063;DHT22;16889;67.864;24.990;2023-05-10T17:11:35;9.90;99.90
30063;DHT22;16889;67.864;24.990;2023-05-10T17:16:21;9.80;99.90
30063;DHT22;16889;67.864;24.990;2023-05-10T17:21:08;9.70;99.90
30063;DHT22;16889;67.864;24.990;2023-05-10T17:25:54;9.50;99.90
30063;DHT22;16889;67.864;24.990;2023-05-10T17:30:40;9.50;99.90
30063;DHT22;16889;67.864;24.990;2023-05-10T17:35:26;9.50;99.90
30063;DHT22;16889;67.864;24.990;2023-05-10T17:40:12;9.40;99.90
30063;DHT22;16889;67.864;24.990;2023-05-10T17:44:58;9.30;99.90
30063;DHT22;16889;67.864;24.990;2023-05-10T17:49:44;9.40;99.90
30063;DHT22;16889;67.864;24.990;2023-05-10T17:54:30;9.40;99.90
30063;DHT22;16889;67.864;24.990;2023-05-10T17:59:16;9.20;99.90
30063;DHT22;16889;67.864;24.990;2023-05-10T18:04:02;9.00;99.90
30063;DHT22;16889;67.864;24.990;2023-05-10T18:08:49;8.90;99.90
30063;DHT22;16889;67.864;24.990;2023-05-10T18:13:35;8.80;99.90
30063;DHT22;16889;67.864;24.990;2023-05-10T18:18:21;8.80;99.90
30063;DHT22;16889;67.864;24.990;2023-05-10T18:23:07;8.70;99.90
30063;DHT22;16889;67.864;24.990;2023-05-10T18:27:53;8.60;99.90
30063;DHT22;16889;67.864;24.990;2023-05-10T18:32:39;8.50;99.90
30063;DHT22;16889;67.864;24.990;2023-05-10T18:37:25;8.40;99.90
30063;DHT22;16889;67.864;24.990;2023-05-10T18:42:11;8.40;99.90
30063;DHT22;16889;67.864;24.990;2023-05-10T18:46:57;8.30;99.90
30063;DHT22;16889;67.864;24.990;2023-05-10T18:51:43;8.30;99.90
30063;DHT22;16889;67.864;24.990;2023-05-10T18:56:29;8.20;99.90
30063;DHT22;16889;67.864;24.990;2023-05-10T19:01:16;8.10;99.90
30063;DHT22;16889;67.864;24.990;2023-05-10T19:06:02;8.00;99.90
30063;DHT22;16889;67.864;24.990;2023-05-10T19:10:48;7.90;99.90
30063;DHT22;16889;67.864;24.990;2023-05-10T19:15:35;7.70;99.90
30063;DHT22;16889;67.864;24.990;2023-05-10T19:20:21;7.50;99.90
30063;DHT22;16889;67.864;24.990;2023-05-10T19:25:07;7.50;99.90
30063;DHT22;16889;67.864;24.990;2023-05-10T19:29:53;7.40;99.90
30063;DHT22;16889;67.864;24.990;2023-05-10T19:34:39;7.30;99.90
30063;DHT22;16889;67.864;24.990;2023-05-10T19:39:25;7.40;99.90
30063;DHT22;16889;67.864;24.990;2023-05-10T19:44:11;7.40;99.90
30063;DHT22;16889;67.864;24.990;2023-05-10T19:48:58;7.40;99.90
30063;DHT22;16889;67.864;24.990;2023-05-10T19:53:44;7.40;99.90
30063;DHT22;16889;67.864;24.990;2023-05-10T19:58:30;7.40;99.90
30063;DHT22;16889;67.864;24.990;2023-05-10T20:03:16;7.40;99.90
30063;DHT22;16889;67.864;24.990;2023-05-10T20:08:02;7.40;99.90
30063;DHT22;16889;67.864;24.990;2023-05-10T20:12:48;7.30;99.90
30063;DHT22;16889;67.864;24.990;2023-05-10T20:17:38;7.30;99.90
30063;DHT22;16889;67.864;24.990;2023-05-10T20:22:24;7.20;99.90
30063;DHT22;16889;67.864;24.990;2023-05-10T20:27:10;7.00;99.90
30063;DHT22;16889;67.864;24.990;2023-05-10T20:31:56;7.10;99.90
30063;DHT22;16889;67.864;24.990;2023-05-10T20:36:42;7.10;99.90
30063;DHT22;16889;67.864;24.990;2023-05-10T20:41:28;6.90;99.90
30063;DHT22;16889;67.864;24.990;2023-05-10T20:46:14;6.80;99.90
30063;DHT22;16889;67.864;24.990;2023-05-10T20:51:01;6.90;99.90
30063;DHT22;16889;67.864;24.990;2023-05-10T20:55:47;6.90;99.90
30063;DHT22;16889;67.864;24.990;2023-05-10T21:00:33;6.80;99.90
30063;DHT22;16889;67.864;24.990;2023-05-10T21:05:19;6.70;99.90
30063;DHT22;16889;67.864;24.990;2023-05-10T21:10:06;6.80;99.90
30063;DHT22;16889;67.864;24.990;2023-05-10T21:14:52;6.70;99.90
30063;DHT22;16889;67.864;24.990;2023-05-10T21:19:38;6.70;99.90
30063;DHT22;16889;67.864;24.990;2023-05-10T21:24:24;7.00;99.90
30063;DHT22;16889;67.864;24.990;2023-05-10T21:29:10;6.90;99.90
30063;DHT22;16889;67.864;24.990;2023-05-10T21:33:57;6.90;99.90
30063;DHT22;16889;67.864;24.990;2023-05-10T21:38:42;6.80;99.90
30063;DHT22;16889;67.864;24.990;2023-05-10T21:43:29;6.60;99.90
30063;DHT22;16889;67.864;24.990;2023-05-10T21:48:16;6.40;99.90
30063;DHT22;16889;67.864;24.990;2023-05-10T21:53:02;6.30;99.90
30063;DHT22;16889;67.864;24.990;2023-05-10T21:57:49;6.40;99.90
30063;DHT22;16889;67.864;24.990;2023-05-10T22:02:35;6.30;99.90
30063;DHT22;16889;67.864;24.990;2023-05-10T22:07:21;6.20;99.90
30063;DHT22;16889;67.864;24.990;2023-05-10T22:12:07;5.70;99.90
30063;DHT22;16889;67.864;24.990;2023-05-10T22:16:53;5.40;99.90
30063;DHT22;16889;67.864;24.990;2023-05-10T22:21:39;4.90;99.90
30063;DHT22;16889;67.864;24.990;2023-05-10T22:26:25;4.60;99.90
30063;DHT22;16889;67.864;24.990;2023-05-10T22:31:11;4.30;99.90
30063;DHT22;16889;67.864;24.990;2023-05-10T22:35:57;3.90;99.90
30063;DHT22;16889;67.864;24.990;2023-05-10T22:40:43;3.90;99.90
30063;DHT22;16889;67.864;24.990;2023-05-10T22:45:29;3.90;99.90
30063;DHT22;16889;67.864;24.990;2023-05-10T22:50:16;3.80;99.90
30063;DHT22;16889;67.864;24.990;2023-05-10T22:55:02;3.60;99.90
30063;DHT22;16889;67.864;24.990;2023-05-10T22:59:48;3.60;99.90
30063;DHT22;16889;67.864;24.990;2023-05-10T23:04:34;3.50;99.90
30063;DHT22;16889;67.864;24.990;2023-05-10T23:09:20;3.50;99.90
30063;DHT22;16889;67.864;24.990;2023-05-10T23:14:06;3.40;99.90
30063;DHT22;16889;67.864;24.990;2023-05-10T23:18:52;3.30;99.90
30063;DHT22;16889;67.864;24.990;2023-05-10T23:23:38;3.00;99.90
30063;DHT22;16889;67.864;24.990;2023-05-10T23:28:24;2.90;99.90
30063;DHT22;16889;67.864;24.990;2023-05-10T23:33:10;3.00;99.90
30063;DHT22;16889;67.864;24.990;2023-05-10T23:37:58;2.90;99.90
30063;DHT22;16889;67.864;24.990;2023-05-10T23:42:44;2.80;99.90
30063;DHT22;16889;67.864;24.990;2023-05-10T23:47:30;2.80;99.90
30063;DHT22;16889;67.864;24.990;2023-05-10T23:52:16;2.70;99.90
30063;DHT22;16889;67.864;24.990;2023-05-10T23:57:02;2.80;99.90
